createdAt,value
2022-10-18T00:02:12.889Z,16.50
2022-10-18T00:04:43.037Z,16.50
2022-10-18T00:07:14.294Z,16.50
2022-10-18T00:09:45.253Z,16.50
2022-10-18T00:12:13.033Z,16.50
2022-10-18T00:14:53.078Z,16.50
2022-10-18T00:17:24.076Z,16.50
2022-10-18T00:19:52.016Z,16.40
2022-10-18T00:22:23.668Z,16.40
2022-10-18T00:24:53.879Z,16.40
2022-10-18T00:27:24.864Z,16.30
2022-10-18T00:29:57.272Z,16.20
2022-10-18T00:32:25.667Z,16.30
2022-10-18T00:34:54.859Z,16.30
2022-10-18T00:37:24.964Z,16.20
2022-10-18T00:42:34.299Z,16.20
2022-10-18T00:45:19.091Z,16.10
2022-10-18T00:47:52.196Z,16.00
2022-10-18T00:50:23.059Z,16.00
2022-10-18T00:52:55.608Z,16.00
2022-10-18T00:55:23.850Z,16.00
2022-10-18T00:57:52.244Z,16.10
2022-10-18T01:00:21.693Z,16.10
2022-10-18T01:02:50.000Z,16.10
2022-10-18T01:05:20.222Z,16.10
2022-10-18T01:08:07.614Z,16.10
2022-10-18T01:10:42.830Z,16.10
2022-10-18T01:13:25.835Z,16.10
2022-10-18T01:16:04.537Z,16.10
2022-10-18T01:18:43.967Z,16.10
2022-10-18T01:21:24.334Z,16.10
2022-10-18T01:24:34.228Z,16.20
2022-10-18T01:27:26.951Z,16.30
2022-10-18T01:30:09.754Z,16.30
2022-10-18T01:32:48.548Z,16.30
2022-10-18T01:35:26.359Z,16.30
2022-10-18T01:37:56.687Z,16.30
2022-10-18T01:40:26.279Z,16.30
2022-10-18T01:42:54.557Z,16.30
2022-10-18T01:45:25.417Z,16.30
2022-10-18T01:47:56.813Z,16.20
2022-10-18T01:50:32.967Z,16.30
2022-10-18T01:53:04.560Z,16.20
2022-10-18T01:55:41.179Z,16.30
2022-10-18T01:58:19.962Z,16.20
2022-10-18T02:00:55.456Z,16.30
2022-10-18T02:03:26.944Z,16.30
2022-10-18T02:06:06.902Z,16.30
2022-10-18T02:08:39.251Z,16.30
2022-10-18T02:11:10.023Z,16.30
2022-10-18T02:13:43.956Z,16.30
2022-10-18T02:16:17.704Z,16.30
2022-10-18T02:18:53.189Z,16.40
2022-10-18T02:21:25.907Z,16.40
2022-10-18T02:23:56.177Z,16.30
2022-10-18T02:26:27.935Z,16.30
2022-10-18T02:28:56.192Z,16.30
2022-10-18T02:31:30.167Z,16.30
2022-10-18T02:34:07.979Z,16.30
2022-10-18T02:36:44.081Z,16.30
2022-10-18T02:39:15.358Z,16.30
2022-10-18T02:41:45.756Z,16.30
2022-10-18T02:44:13.544Z,16.30
2022-10-18T02:46:43.895Z,16.30
2022-10-18T02:49:14.173Z,16.30
2022-10-18T02:51:45.519Z,16.30
2022-10-18T02:54:14.715Z,16.30
2022-10-18T02:56:44.661Z,16.30
2022-10-18T02:59:12.743Z,16.20
2022-10-18T03:01:47.828Z,16.20
2022-10-18T03:04:17.010Z,16.20
2022-10-18T03:06:44.935Z,16.20
2022-10-18T03:09:12.954Z,16.20
2022-10-18T03:11:41.901Z,16.20
2022-10-18T03:14:13.170Z,16.20
2022-10-18T03:16:42.525Z,16.20
2022-10-18T03:19:10.323Z,16.30
2022-10-18T03:21:48.117Z,16.20
2022-10-18T03:24:17.228Z,16.10
2022-10-18T03:26:46.629Z,16.10
2022-10-18T03:29:16.911Z,16.10
2022-10-18T03:31:47.088Z,16.10
2022-10-18T03:34:18.216Z,16.10
2022-10-18T03:36:51.044Z,16.10
2022-10-18T03:39:21.243Z,16.10
2022-10-18T03:41:50.744Z,16.20
2022-10-18T03:44:19.656Z,16.20
2022-10-18T03:46:50.813Z,16.10
2022-10-18T03:49:18.607Z,16.20
2022-10-18T03:51:49.074Z,16.20
2022-10-18T03:54:18.950Z,16.20
2022-10-18T03:56:46.776Z,16.10
2022-10-18T03:59:16.964Z,16.20
2022-10-18T04:01:44.856Z,16.10
2022-10-18T04:04:12.703Z,16.20
2022-10-18T04:06:40.796Z,16.20
2022-10-18T04:09:11.861Z,16.20
2022-10-18T04:11:43.551Z,16.20
2022-10-18T04:14:12.892Z,16.20
2022-10-18T04:16:41.410Z,16.20
2022-10-18T04:19:09.204Z,16.20
2022-10-18T04:21:39.064Z,16.20
2022-10-18T04:24:10.779Z,16.10
2022-10-18T04:26:44.419Z,16.10
2022-10-18T04:29:12.605Z,16.10
2022-10-18T04:31:40.448Z,16.10
2022-10-18T04:34:10.548Z,16.10
2022-10-18T04:36:46.497Z,16.10
2022-10-18T04:39:14.284Z,16.00
2022-10-18T04:41:44.816Z,16.00
2022-10-18T04:44:16.584Z,16.00
2022-10-18T04:46:47.677Z,16.10
2022-10-18T04:49:16.707Z,16.10
2022-10-18T04:51:46.113Z,16.00
2022-10-18T04:54:16.865Z,16.00
2022-10-18T04:56:46.026Z,16.00
2022-10-18T04:59:15.025Z,16.00
2022-10-18T05:01:45.322Z,15.90
2022-10-18T05:04:15.761Z,15.90
2022-10-18T05:06:47.057Z,15.90
2022-10-18T05:09:14.848Z,15.90
2022-10-18T05:11:45.113Z,15.90
2022-10-18T05:14:16.303Z,15.90
2022-10-18T05:16:47.171Z,15.90
2022-10-18T05:19:16.324Z,15.90
2022-10-18T05:21:45.447Z,15.90
2022-10-18T05:24:16.429Z,15.90
2022-10-18T05:26:44.237Z,16.00
2022-10-18T05:29:14.792Z,16.00
2022-10-18T05:31:46.141Z,16.00
2022-10-18T05:34:13.948Z,16.00
2022-10-18T05:36:43.901Z,16.00
2022-10-18T05:39:13.187Z,16.00
2022-10-18T05:41:44.705Z,16.00
2022-10-18T05:44:17.050Z,16.00
2022-10-18T05:46:48.334Z,16.10
2022-10-18T05:49:19.901Z,16.00
2022-10-18T05:51:50.945Z,16.00
2022-10-18T05:54:18.947Z,16.10
2022-10-18T05:56:46.758Z,16.10
2022-10-18T05:59:18.039Z,16.10
2022-10-18T06:01:49.280Z,16.00
2022-10-18T06:04:25.871Z,16.00
2022-10-18T06:06:56.149Z,16.00
2022-10-18T06:09:28.972Z,16.00
2022-10-18T06:12:00.732Z,16.10
2022-10-18T06:14:32.656Z,16.10
2022-10-18T06:17:01.622Z,16.10
2022-10-18T06:19:30.843Z,16.10
2022-10-18T06:22:02.395Z,16.10
2022-10-18T06:24:31.283Z,16.10
2022-10-18T06:27:00.631Z,16.10
2022-10-18T06:29:34.542Z,16.20
2022-10-18T06:32:04.395Z,16.20
2022-10-18T06:34:35.687Z,16.20
2022-10-18T06:37:04.830Z,16.30
2022-10-18T06:39:32.711Z,16.30
2022-10-18T06:42:03.168Z,16.30
2022-10-18T06:44:32.303Z,16.30
2022-10-18T06:47:00.107Z,16.30
2022-10-18T06:49:29.086Z,16.30
2022-10-18T06:51:58.090Z,16.30
2022-10-18T06:54:27.152Z,16.30
2022-10-18T06:56:57.107Z,16.30
2022-10-18T06:59:30.378Z,16.30
2022-10-18T07:02:00.934Z,16.30
2022-10-18T07:04:30.786Z,16.30
2022-10-18T07:06:58.973Z,16.30
2022-10-18T07:09:27.068Z,16.30
2022-10-18T07:11:58.556Z,16.30
2022-10-18T07:14:28.989Z,16.30
2022-10-18T07:17:01.695Z,16.30
2022-10-18T07:19:29.572Z,16.30
2022-10-18T07:21:57.377Z,16.30
2022-10-18T07:24:26.397Z,16.30
2022-10-18T07:26:54.253Z,16.30
2022-10-18T07:29:22.088Z,16.40
2022-10-18T07:31:52.406Z,16.40
2022-10-18T07:34:23.211Z,16.50
2022-10-18T07:36:53.495Z,16.50
2022-10-18T07:39:25.044Z,16.60
2022-10-18T07:41:53.124Z,16.70
2022-10-18T07:44:21.008Z,16.70
2022-10-18T07:46:49.903Z,16.80
2022-10-18T07:49:20.279Z,16.90
2022-10-18T07:51:49.473Z,16.90
2022-10-18T07:54:19.604Z,17.00
2022-10-18T07:56:48.977Z,17.10
2022-10-18T07:59:16.841Z,17.20
2022-10-18T08:01:46.031Z,17.30
2022-10-18T08:04:16.466Z,17.30
2022-10-18T08:06:46.908Z,17.30
2022-10-18T08:09:16.116Z,17.40
2022-10-18T08:11:43.962Z,17.40
2022-10-18T08:14:13.910Z,17.40
2022-10-18T08:16:43.016Z,17.50
2022-10-18T08:19:10.854Z,17.50
2022-10-18T08:21:40.101Z,17.60
2022-10-18T08:24:09.263Z,17.60
2022-10-18T08:26:38.665Z,17.80
2022-10-18T08:29:24.184Z,17.90
2022-10-18T08:31:54.309Z,18.00
2022-10-18T08:34:23.492Z,18.10
2022-10-18T08:36:52.614Z,18.20
2022-10-18T08:39:22.459Z,18.20
2022-10-18T08:42:22.573Z,18.30
2022-10-18T08:44:52.459Z,18.30
2022-10-18T08:47:23.545Z,18.40
2022-10-18T08:49:56.588Z,18.40
2022-10-18T08:52:34.693Z,18.50
2022-10-18T08:55:08.614Z,18.50
2022-10-18T08:57:39.409Z,18.60
2022-10-18T09:00:15.989Z,18.70
2022-10-18T09:02:57.213Z,18.70
2022-10-18T09:05:34.960Z,18.90
2022-10-18T09:08:19.331Z,18.90
2022-10-18T09:11:00.874Z,19.00
2022-10-18T09:13:52.434Z,19.00
2022-10-18T09:16:28.277Z,19.00
2022-10-18T09:19:02.862Z,19.00
2022-10-18T09:21:47.179Z,19.10
2022-10-18T09:24:21.445Z,19.10
2022-10-18T09:26:56.684Z,19.20
2022-10-18T09:29:42.420Z,19.30
2022-10-18T09:32:25.056Z,19.30
2022-10-18T09:34:56.387Z,19.70
2022-10-18T09:37:27.822Z,20.00
2022-10-18T09:40:03.852Z,20.60
2022-10-18T09:42:37.252Z,21.10
2022-10-18T09:45:21.358Z,21.50
2022-10-18T09:47:59.924Z,21.70
2022-10-18T09:50:33.176Z,21.80
2022-10-18T09:53:07.927Z,21.90
2022-10-18T09:55:43.100Z,22.00
2022-10-18T09:58:14.676Z,22.00
2022-10-18T10:00:49.406Z,22.10
2022-10-18T10:03:17.567Z,22.10
2022-10-18T10:05:48.253Z,22.20
2022-10-18T10:08:16.061Z,22.10
2022-10-18T10:10:49.017Z,21.90
2022-10-18T10:13:24.957Z,21.80
2022-10-18T10:15:57.940Z,21.60
2022-10-18T10:18:31.675Z,21.50
2022-10-18T10:21:05.541Z,21.70
2022-10-18T10:23:38.211Z,21.90
2022-10-18T10:26:25.797Z,22.00
2022-10-18T10:28:56.192Z,22.20
2022-10-18T10:31:32.678Z,22.20
2022-10-18T10:34:03.857Z,22.10
2022-10-18T10:36:36.674Z,22.20
2022-10-18T10:39:08.612Z,22.10
2022-10-18T10:41:36.906Z,22.10
2022-10-18T10:44:13.661Z,22.00
2022-10-18T10:46:45.485Z,21.90
2022-10-18T10:49:40.361Z,21.80
2022-10-18T10:52:09.223Z,21.70
2022-10-18T10:55:05.852Z,21.50
2022-10-18T10:57:46.823Z,21.40
2022-10-18T11:00:46.264Z,21.30
2022-10-18T11:03:34.540Z,21.20
2022-10-18T11:06:02.407Z,21.20
2022-10-18T11:08:36.926Z,21.20
2022-10-18T11:11:20.636Z,21.10
2022-10-18T11:14:07.380Z,21.00
2022-10-18T11:16:55.151Z,21.00
2022-10-18T11:19:35.184Z,20.80
2022-10-18T11:22:11.923Z,20.70
2022-10-18T11:24:42.104Z,20.60
2022-10-18T11:27:19.737Z,20.50
2022-10-18T11:30:05.670Z,20.40
2022-10-18T11:32:43.979Z,20.40
2022-10-18T11:35:29.327Z,20.40
2022-10-18T11:38:12.318Z,20.30
2022-10-18T11:41:08.307Z,20.20
2022-10-18T11:44:01.802Z,20.20
2022-10-18T11:46:58.928Z,20.20
2022-10-18T11:49:54.386Z,20.20
2022-10-18T11:52:36.201Z,20.20
2022-10-18T11:55:32.986Z,20.20
2022-10-18T11:58:09.325Z,20.20
2022-10-18T12:00:48.906Z,20.20
2022-10-18T12:03:35.193Z,20.20
2022-10-18T12:06:07.698Z,20.20
2022-10-18T12:08:44.399Z,20.10
2022-10-18T12:11:20.338Z,20.10
2022-10-18T12:13:52.104Z,20.00
2022-10-18T12:16:45.462Z,20.00
2022-10-18T12:19:23.414Z,20.00
2022-10-18T12:21:56.003Z,19.90
2022-10-18T12:24:29.589Z,19.90
2022-10-18T12:27:06.131Z,19.90
2022-10-18T12:29:45.438Z,19.90
2022-10-18T12:32:22.099Z,19.90
2022-10-18T12:34:53.453Z,19.90
2022-10-18T12:37:50.542Z,20.00
2022-10-18T12:40:24.580Z,20.00
2022-10-18T12:42:56.849Z,20.00
2022-10-18T12:45:35.455Z,20.10
2022-10-18T12:48:06.665Z,20.10
2022-10-18T12:50:37.989Z,20.10
2022-10-18T12:53:17.210Z,20.20
2022-10-18T12:55:51.309Z,20.30
2022-10-18T12:58:31.319Z,20.50
2022-10-18T13:01:03.710Z,21.00
2022-10-18T13:03:58.527Z,21.40
2022-10-18T13:06:48.069Z,21.90
2022-10-18T13:09:21.854Z,22.30
2022-10-18T13:12:01.751Z,22.50
2022-10-18T13:14:59.095Z,22.60
2022-10-18T13:17:41.154Z,22.60
2022-10-18T13:20:25.935Z,22.70
2022-10-18T13:23:12.824Z,22.50
2022-10-18T13:25:55.578Z,22.30
2022-10-18T13:28:32.198Z,22.10
2022-10-18T13:31:08.167Z,22.00
2022-10-18T13:33:46.635Z,21.70
2022-10-18T13:36:28.218Z,21.70
2022-10-18T13:39:04.867Z,21.80
2022-10-18T13:41:57.374Z,21.90
2022-10-18T13:44:31.661Z,21.70
2022-10-18T13:47:39.200Z,21.50
2022-10-18T13:50:33.872Z,21.30
2022-10-18T13:53:42.713Z,21.20
2022-10-18T13:56:57.927Z,21.00
2022-10-18T13:59:47.656Z,21.10
2022-10-18T14:02:51.499Z,21.10
2022-10-18T14:05:41.121Z,21.00
2022-10-18T14:08:14.731Z,21.00
2022-10-18T14:11:01.768Z,21.00
2022-10-18T14:13:42.044Z,20.90
2022-10-18T14:16:28.861Z,20.70
2022-10-18T14:19:04.828Z,20.50
2022-10-18T14:21:38.813Z,20.40
2022-10-18T14:24:18.632Z,20.30
2022-10-18T14:26:50.834Z,20.20
2022-10-18T14:29:21.066Z,20.20
2022-10-18T14:31:58.693Z,20.10
2022-10-18T14:34:28.110Z,20.10
2022-10-18T14:37:00.496Z,20.10
2022-10-18T14:39:33.386Z,20.00
2022-10-18T14:42:03.564Z,20.00
2022-10-18T14:44:35.631Z,20.00
2022-10-18T14:47:14.948Z,20.00
2022-10-18T14:49:44.872Z,20.00
2022-10-18T14:52:18.677Z,20.00
2022-10-18T14:54:47.235Z,20.00
2022-10-18T14:57:26.764Z,19.90
2022-10-18T15:00:00.304Z,19.80
2022-10-18T15:02:33.551Z,19.70
2022-10-18T15:05:10.821Z,19.60
2022-10-18T15:07:40.908Z,19.60
2022-10-18T15:10:19.695Z,19.60
2022-10-18T15:13:08.707Z,19.60
2022-10-18T15:15:39.468Z,19.50
2022-10-18T15:18:23.250Z,19.50
2022-10-18T15:21:21.601Z,19.50
2022-10-18T15:23:49.958Z,19.50
2022-10-18T15:26:25.066Z,19.50
2022-10-18T15:28:58.732Z,19.40
2022-10-18T15:31:36.383Z,19.30
2022-10-18T15:34:16.514Z,19.30
2022-10-18T15:36:45.860Z,19.20
2022-10-18T15:39:17.936Z,19.10
2022-10-18T15:41:53.154Z,19.00
2022-10-18T15:44:38.901Z,18.90
2022-10-18T15:47:21.273Z,18.80
2022-10-18T15:49:58.279Z,18.70
2022-10-18T15:52:44.290Z,18.60
2022-10-18T15:55:49.242Z,18.50
2022-10-18T15:58:23.213Z,18.50
2022-10-18T16:00:56.425Z,18.40
2022-10-18T16:03:28.790Z,18.40
2022-10-18T16:06:03.748Z,18.30
2022-10-18T16:08:37.003Z,18.20
2022-10-18T16:11:06.361Z,18.20
2022-10-18T16:13:34.179Z,18.10
2022-10-18T16:16:03.034Z,18.00
2022-10-18T16:18:31.065Z,18.00
2022-10-18T16:21:02.896Z,18.00
2022-10-18T16:23:34.504Z,17.90
2022-10-18T16:26:03.896Z,17.90
2022-10-18T16:28:32.004Z,17.80
2022-10-18T16:31:04.967Z,17.80
2022-10-18T16:33:36.899Z,17.80
2022-10-18T16:36:09.069Z,17.80
2022-10-18T16:38:40.043Z,17.70
2022-10-18T16:41:11.260Z,17.70
2022-10-18T16:43:41.649Z,17.70
2022-10-18T16:46:13.875Z,17.70
2022-10-18T16:48:42.660Z,17.70
2022-10-18T16:51:15.312Z,17.70
2022-10-18T16:53:46.960Z,17.60
2022-10-18T16:56:17.778Z,17.60
2022-10-18T16:58:49.656Z,17.60
2022-10-18T17:01:20.558Z,17.50
2022-10-18T17:03:52.513Z,17.50
2022-10-18T17:06:25.868Z,17.50
2022-10-18T17:08:56.615Z,17.50
2022-10-18T17:11:26.286Z,17.50
2022-10-18T17:13:55.335Z,17.40
2022-10-18T17:19:01.929Z,17.40
2022-10-18T17:21:33.400Z,17.40
2022-10-18T17:24:06.129Z,17.40
2022-10-18T17:26:36.028Z,17.40
2022-10-18T17:29:08.089Z,17.30
2022-10-18T17:31:36.884Z,17.30
2022-10-18T17:34:05.398Z,17.20
2022-10-18T17:36:35.544Z,17.20
2022-10-18T17:39:03.677Z,17.10
2022-10-18T17:41:34.170Z,17.10
2022-10-18T17:44:05.885Z,17.00
2022-10-18T17:46:36.014Z,17.00
2022-10-18T17:49:04.074Z,16.90
2022-10-18T17:51:34.684Z,16.90
2022-10-18T17:54:10.855Z,16.80
2022-10-18T17:56:42.356Z,16.80
2022-10-18T17:59:12.491Z,16.80
2022-10-18T18:01:42.412Z,16.70
2022-10-18T18:04:11.224Z,16.70
2022-10-18T18:06:39.899Z,16.70
2022-10-18T18:09:13.049Z,16.60
2022-10-18T18:11:44.507Z,16.60
2022-10-18T18:14:16.281Z,16.60
2022-10-18T18:16:47.723Z,16.60
2022-10-18T18:19:19.762Z,16.50
2022-10-18T18:21:49.219Z,16.50
2022-10-18T18:24:25.001Z,16.50
2022-10-18T18:26:57.284Z,16.50
2022-10-18T18:29:29.152Z,16.50
2022-10-18T18:32:01.028Z,16.40
2022-10-18T18:34:32.913Z,16.40
2022-10-18T18:37:01.760Z,16.40
2022-10-18T18:39:35.608Z,16.40
2022-10-18T18:42:06.089Z,16.40
2022-10-18T18:44:35.406Z,16.30
2022-10-18T18:47:04.298Z,16.40
2022-10-18T18:49:35.193Z,16.30
2022-10-18T18:52:02.972Z,16.30
2022-10-18T18:54:34.610Z,16.30
2022-10-18T18:57:05.263Z,16.30
2022-10-18T18:59:35.509Z,16.20
2022-10-18T19:02:03.570Z,16.20
2022-10-18T19:04:31.728Z,16.20
2022-10-18T19:07:00.608Z,16.10
2022-10-18T19:09:34.813Z,16.00
2022-10-18T19:12:06.258Z,16.00
2022-10-18T19:14:38.998Z,15.90
2022-10-18T19:17:10.157Z,15.90
2022-10-18T19:19:41.600Z,15.80
2022-10-18T19:22:11.623Z,15.80
2022-10-18T19:24:40.884Z,15.70
2022-10-18T19:27:12.454Z,15.70
2022-10-18T19:29:43.942Z,15.70
2022-10-18T19:32:13.292Z,15.70
2022-10-18T19:34:43.815Z,15.70
2022-10-18T19:37:13.069Z,15.70
2022-10-18T19:39:46.996Z,15.70
2022-10-18T19:42:18.604Z,15.70
2022-10-18T19:44:51.498Z,15.70
2022-10-18T19:47:20.819Z,15.70
2022-10-18T19:49:52.685Z,15.70
2022-10-18T19:52:23.961Z,15.70
2022-10-18T19:54:56.589Z,15.70
2022-10-18T19:57:26.717Z,15.70
2022-10-18T19:59:59.165Z,15.70
2022-10-18T20:02:30.311Z,15.70
2022-10-18T20:04:58.664Z,15.70
2022-10-18T20:07:26.739Z,15.70
2022-10-18T20:09:58.182Z,15.80
2022-10-18T20:12:26.014Z,15.80
2022-10-18T20:14:55.865Z,15.90
2022-10-18T20:17:23.676Z,15.90
2022-10-18T20:19:53.544Z,16.00
2022-10-18T20:22:21.334Z,16.00
2022-10-18T20:24:51.758Z,16.00
2022-10-18T20:27:21.679Z,16.00
2022-10-18T20:29:50.817Z,16.00
2022-10-18T20:32:21.944Z,16.00
2022-10-18T20:34:52.125Z,16.00
2022-10-18T20:37:23.073Z,15.90
2022-10-18T20:39:50.886Z,15.90
2022-10-18T20:42:20.305Z,15.90
2022-10-18T20:44:49.687Z,15.90
2022-10-18T20:47:19.809Z,15.90
2022-10-18T20:49:49.622Z,16.00
2022-10-18T20:52:18.488Z,16.00
2022-10-18T20:54:48.596Z,16.00
2022-10-18T20:57:18.738Z,16.00
2022-10-18T20:59:49.685Z,16.00
2022-10-18T21:02:17.521Z,16.00
2022-10-18T21:04:49.284Z,16.00
2022-10-18T21:07:19.378Z,16.00
2022-10-18T21:09:51.239Z,16.00
2022-10-18T21:12:22.406Z,16.00
2022-10-18T21:14:54.608Z,16.00
2022-10-18T21:17:24.452Z,16.00
2022-10-18T21:19:57.131Z,16.00
2022-10-18T21:22:26.979Z,16.00
2022-10-18T21:24:54.759Z,16.00
2022-10-18T21:27:24.736Z,16.00
2022-10-18T21:29:57.203Z,15.90
2022-10-18T21:32:25.063Z,15.90
2022-10-18T21:34:54.053Z,15.90
2022-10-18T21:37:21.874Z,15.80
2022-10-18T21:39:51.735Z,15.80
2022-10-18T21:42:22.991Z,15.80
2022-10-18T21:44:54.220Z,15.80
2022-10-18T21:47:25.423Z,15.80
2022-10-18T21:49:54.804Z,15.70
2022-10-18T21:52:24.984Z,15.60
2022-10-18T21:54:54.735Z,15.60
2022-10-18T21:57:22.902Z,15.50
2022-10-18T21:59:52.821Z,15.50
2022-10-18T22:02:23.421Z,15.40
2022-10-18T22:04:51.238Z,15.40
2022-10-18T22:07:21.187Z,15.40
2022-10-18T22:09:50.222Z,15.30
2022-10-18T22:12:19.603Z,15.30
2022-10-18T22:14:48.989Z,15.30
2022-10-18T22:17:17.859Z,15.30
2022-10-18T22:19:54.332Z,15.30
2022-10-18T22:22:23.441Z,15.30
2022-10-18T22:24:52.600Z,15.30
2022-10-18T22:27:20.376Z,15.30
2022-10-18T22:29:48.223Z,15.30
2022-10-18T22:32:16.033Z,15.30
2022-10-18T22:34:45.859Z,15.30
2022-10-18T22:37:18.824Z,15.30
2022-10-18T22:39:48.940Z,15.30
2022-10-18T22:42:18.252Z,15.30
2022-10-18T22:44:47.419Z,15.30
2022-10-18T22:47:18.599Z,15.30
2022-10-18T22:49:47.977Z,15.30
2022-10-18T22:52:20.331Z,15.20
2022-10-18T22:54:49.320Z,15.20
2022-10-18T22:57:19.537Z,15.10
2022-10-18T22:59:49.723Z,15.10
2022-10-18T23:02:20.676Z,15.00
2022-10-18T23:04:52.201Z,15.00
2022-10-18T23:07:23.415Z,14.90
2022-10-18T23:09:54.757Z,14.90
2022-10-18T23:12:22.596Z,14.90
2022-10-18T23:14:50.410Z,14.90
2022-10-18T23:17:18.225Z,14.80
2022-10-18T23:19:46.027Z,14.80
2022-10-18T23:22:21.140Z,14.80
2022-10-18T23:24:52.611Z,14.70
2022-10-18T23:27:24.000Z,14.70
2022-10-18T23:29:51.792Z,14.70
2022-10-18T23:32:20.966Z,14.70
2022-10-18T23:34:48.795Z,14.60
2022-10-18T23:37:16.611Z,14.60
2022-10-18T23:39:45.596Z,14.60
2022-10-18T23:42:18.440Z,14.40
2022-10-18T23:44:47.935Z,14.40
2022-10-18T23:47:17.254Z,14.40
2022-10-18T23:49:47.479Z,14.40
2022-10-18T23:52:17.591Z,14.40
2022-10-18T23:54:45.425Z,14.40
2022-10-18T23:57:15.011Z,14.50
2022-10-18T23:59:42.836Z,14.50
